KATL

Hartsfield - Jackson Atlanta International Airport

Atlanta, Georgia, USA
METAR KATL 220152Z 14005KT 10SM BKN090 BKN200 22/18 A3011 RMK AO2 SLP189 T02220178
Observed Flight Rules
May-22 @ 01:52 UTC (43 minutes ago) Visual Flight Rules
Wind Visibility Clouds
140° at 5 knots 10 miles
  • Broken at 9,000' AGL
  • Broken at 20,000' AGL
Temperatures Readings
Current 22°C / 72°F
Dewpoint 18°C / 64°F
Humidity 78%
Altimeter 30.11" Hg
Pressure 1018.9 hPa
Elevation 296
METAR KATL 220152Z 14005KT 10SM BKN090 BKN200 22/18 A3011 RMK AO2 SLP189 T02220178
Observed Flight Rules
May-22 @ 01:52 UTC
(43 minutes ago)
VFR
Wind Visibility
140° at 5 knots 10 miles
Clouds
  • Broken at 9,000' AGL
  • Broken at 20,000' AGL
Temperature Dewpoint
22°C / 72°F 18°C / 64°F
Humidity Altimeter Pressure
78% 30.11" Hg 1018.9 hPa